Time;durP1;ratioP1;P1;durP2;ratioP2;P2;SDS_P1;SDS_P2;PMS_P1;PMS_P2;Temp;Humidity;BMP_temperature;BMP_pressure;BME280_temperature;BME280_humidity;BME280_pressure;Samples;Min_cycle;Max_cycle;Signal;HPM_P1;HPM_P2
2023/04/02 00:01:43;;;;;;;;;2.33;1.33;;;;;21.91;42.05;101333.84;5077674;28;47217;-76
2023/04/02 00:04:36;;;;;;;;;2.00;2.00;;;;;21.91;42.42;101341.78;5077518;27;45385;-75
2023/04/02 00:07:30;;;;;;;;;7.33;1.67;;;;;21.90;42.41;101340.97;5076712;28;45555;-75
2023/04/02 00:09:56;;;;;;;;;2.00;1.00;;;;;21.90;41.71;101340.97;5075144;28;45475;-76
2023/04/02 00:12:22;;;;;;;;;2.00;2.00;;;;;21.80;41.62;101327.84;5077339;27;47018;-75
2023/04/02 00:14:54;;;;;;;;;2.67;1.00;;;;;21.90;41.71;101348.06;5077257;28;45468;-76
2023/04/02 00:17:23;;;;;;;;;1.00;1.00;;;;;21.90;41.96;101358.66;5077566;27;45380;-76
2023/04/02 00:19:53;;;;;;;;;0.33;0.33;;;;;21.81;42.07;101350.69;5077091;27;45385;-75
2023/04/02 00:22:24;;;;;;;;;0.67;0.67;;;;;21.89;41.68;101357.84;5077190;28;46191;-76
2023/04/02 00:24:52;;;;;;;;;2.67;2.00;;;;;21.89;42.04;101370.25;5077206;27;45425;-75
2023/04/02 00:27:18;;;;;;;;;1.00;1.00;;;;;21.87;41.68;101373.06;5077126;28;45294;-76
2023/04/02 00:29:48;;;;;;;;;2.00;1.33;;;;;21.88;41.68;101371.25;5077398;27;45310;-75
2023/04/02 00:32:25;;;;;;;;;5.00;2.00;;;;;21.88;41.78;101379.19;5077006;27;45300;-76
2023/04/02 00:34:51;;;;;;;;;3.33;2.00;;;;;21.88;41.75;101377.38;5076731;28;45399;-76
2023/04/02 00:37:23;;;;;;;;;1.67;1.67;;;;;21.88;41.58;101377.38;5076992;28;45332;-75
2023/04/02 00:39:52;;;;;;;;;2.67;2.00;;;;;21.88;42.00;101390.63;5076983;27;45554;-74
2023/04/02 00:42:19;;;;;;;;;2.33;1.33;;;;;21.89;41.78;101386.13;5076952;28;45374;-75
2023/04/02 00:44:44;;;;;;;;;3.33;2.00;;;;;21.89;41.59;101381.66;5076866;28;45222;-76
2023/04/02 00:47:19;;;;;;;;;3.00;1.33;;;;;21.89;41.38;101389.63;5076869;28;45391;-75
2023/04/02 00:49:45;;;;;;;;;1.67;1.00;;;;;21.90;41.78;101390.47;5076631;27;45329;-75
2023/04/02 00:52:15;;;;;;;;;1.00;1.00;;;;;21.91;41.46;101392.13;5076721;28;46003;-74
2023/04/02 00:54:49;;;;;;;;;2.00;2.00;;;;;21.90;41.77;101388.63;5076729;28;45456;-76
2023/04/02 00:57:24;;;;;;;;;3.00;1.00;;;;;21.90;41.67;101388.63;5076790;28;45457;-75
2023/04/02 00:59:55;;;;;;;;;2.00;2.00;;;;;21.91;41.67;101395.56;5076885;27;45382;-75
2023/04/02 01:02:32;;;;;;;;;1.33;1.33;;;;;21.91;41.61;101394.78;5076654;27;46207;-75
2023/04/02 01:05:14;;;;;;;;;1.00;1.00;;;;;21.81;41.69;101387.78;5076507;28;45384;-76
2023/04/02 01:07:48;;;;;;;;;1.00;1.00;;;;;21.91;41.24;101410.66;5076799;28;45572;-75
2023/04/02 01:10:22;;;;;;;;;3.00;1.00;;;;;21.91;41.36;101408.03;5076416;28;45286;-75
2023/04/02 01:12:54;;;;;;;;;2.00;1.00;;;;;21.90;41.58;101412.47;5075835;28;47165;-76
2023/04/02 01:15:30;;;;;;;;;1.00;1.00;;;;;21.90;41.52;101417.78;5076359;28;45402;-75
2023/04/02 01:18:18;;;;;;;;;2.00;1.00;;;;;21.91;41.24;101413.31;5076543;28;45485;-75
2023/04/02 01:21:05;;;;;;;;;1.00;1.00;;;;;21.90;41.46;101417.78;5076461;27;45338;-76
2023/04/02 01:23:52;;;;;;;;;2.00;2.00;;;;;21.89;41.67;101426.72;5076299;28;46170;-75
2023/04/02 01:26:43;;;;;;;;;1.33;1.33;;;;;21.89;41.53;101424.06;5076312;27;45362;-76
2023/04/02 01:29:29;;;;;;;;;1.67;1.33;;;;;21.89;41.72;101429.34;5076585;27;45239;-76
2023/04/02 01:32:00;;;;;;;;;0.00;0.00;;;;;21.88;41.10;101433.03;5075892;27;45377;-74
2023/04/02 01:34:28;;;;;;;;;3.00;1.00;;;;;21.88;41.23;101433.03;5076108;28;45346;-76
2023/04/02 01:36:56;;;;;;;;;1.00;1.00;;;;;21.88;41.54;101443.63;5075774;27;45279;-75
2023/04/02 01:39:40;;;;;;;;;1.00;0.67;;;;;21.87;41.55;101436.66;5075009;28;45398;-76
2023/04/02 01:42:46;;;;;;;;;1.00;1.00;;;;;21.87;41.46;101441.09;5076164;28;45443;-74
2023/04/02 01:45:18;;;;;;;;;1.67;1.67;;;;;21.88;41.47;101440.13;5073504;28;46393;-76
2023/04/02 01:47:45;;;;;;;;;0.33;0.33;;;;;21.89;41.16;101444.41;5073302;28;45340;-75
2023/04/02 01:50:35;;;;;;;;;1.00;1.00;;;;;21.82;41.57;101439.78;5073542;28;45370;-75
2023/04/02 01:53:05;;;;;;;;;2.00;2.00;;;;;21.89;41.09;101450.56;5073817;28;45496;-75
2023/04/02 01:55:42;;;;;;;;;1.00;1.00;;;;;21.90;41.58;101449.56;5073475;28;46250;-75
2023/04/02 01:58:13;;;;;;;;;1.00;1.00;;;;;21.87;40.85;101447.25;5056580;28;45489;-75
2023/04/02 02:01:00;;;;;;;;;1.00;1.00;;;;;21.89;41.53;101462.97;5073412;28;45447;-75
2023/04/02 02:03:25;;;;;;;;;1.00;1.00;;;;;21.88;41.00;101461.31;5073675;28;45365;-74
2023/04/02 02:05:51;;;;;;;;;1.00;1.00;;;;;21.80;40.93;101452.34;5073397;28;47295;-75
2023/04/02 02:08:31;;;;;;;;;1.00;1.00;;;;;21.81;41.29;101456.63;5073420;28;45493;-76
2023/04/02 02:10:57;;;;;;;;;2.00;1.00;;;;;21.89;40.92;101465.63;5073638;28;45462;-76
2023/04/02 02:13:22;;;;;;;;;2.00;0.33;;;;;21.88;40.75;101467.47;5073599;28;45400;-75
2023/04/02 02:15:49;;;;;;;;;1.00;1.00;;;;;21.89;41.14;101469.09;5073033;28;46114;-75
2023/04/02 02:18:19;;;;;;;;;1.00;1.00;;;;;21.89;40.85;101477.03;5073517;28;45379;-76
2023/04/02 02:20:46;;;;;;;;;1.00;1.00;;;;;21.89;40.76;101479.69;5074503;28;45292;-75
2023/04/02 02:23:12;;;;;;;;;1.00;1.00;;;;;21.89;40.71;101481.50;5077879;28;45478;-76
2023/04/02 02:25:39;;;;;;;;;0.00;0.00;;;;;21.85;40.97;101479.19;5079086;27;45291;-75
2023/04/02 02:28:22;;;;;;;;;2.67;1.00;;;;;21.90;40.99;101486.66;5079025;28;45382;-75
2023/04/02 02:30:51;;;;;;;;;1.00;1.00;;;;;21.90;40.62;101496.44;5078754;28;45310;-75
2023/04/02 02:33:29;;;;;;;;;4.00;0.33;;;;;21.89;41.10;101485.00;5079272;28;45362;-76
2023/04/02 02:36:00;;;;;;;;;1.00;1.00;;;;;21.89;41.34;101490.28;5078942;28;45413;-75
2023/04/02 02:38:56;;;;;;;;;1.00;1.00;;;;;21.90;41.10;101493.78;5078933;28;45408;-76
2023/04/02 02:41:40;;;;;;;;;0.00;0.00;;;;;21.89;41.14;101497.41;5079279;28;45394;-77
2023/04/02 02:44:27;;;;;;;;;0.33;0.33;;;;;21.90;40.84;101501.72;5078728;28;45400;-77
2023/04/02 02:47:27;;;;;;;;;0.00;0.00;;;;;21.88;41.16;101504.53;5078601;28;45410;-77
2023/04/02 02:49:56;;;;;;;;;0.00;0.00;;;;;21.87;41.15;101510.81;5078695;27;45413;-77
2023/04/02 02:52:26;;;;;;;;;0.00;0.00;;;;;21.88;41.10;101511.66;5078853;28;46085;-76
2023/04/02 02:55:19;;;;;;;;;1.00;1.00;;;;;21.88;40.99;101515.16;5078794;27;45447;-75
2023/04/02 02:57:50;;;;;;;;;0.00;0.00;;;;;21.88;40.76;101511.66;5078691;28;46680;-77
2023/04/02 03:00:18;;;;;;;;;4.00;0.33;;;;;21.88;41.30;101525.75;5078349;28;45398;-77
2023/04/02 03:02:44;;;;;;;;;2.00;0.33;;;;;21.88;40.77;101525.75;5078356;27;45346;-75
2023/04/02 03:05:16;;;;;;;;;0.00;0.00;;;;;21.88;41.32;101530.19;5078642;28;45365;-76
2023/04/02 03:07:42;;;;;;;;;0.00;0.00;;;;;21.88;40.80;101524.91;5078509;27;47116;-77
2023/04/02 03:10:38;;;;;;;;;2.00;0.33;;;;;21.88;41.03;101536.34;5078390;28;45389;-77
2023/04/02 03:13:18;;;;;;;;;0.00;0.00;;;;;21.88;40.87;101535.50;5077902;28;45398;-75
2023/04/02 03:15:57;;;;;;;;;0.00;0.00;;;;;21.88;40.86;101539.00;5078345;27;45362;-76
2023/04/02 03:18:35;;;;;;;;;1.00;1.00;;;;;21.79;40.80;101530.16;5078329;28;47230;-76
2023/04/02 03:21:29;;;;;;;;;1.00;1.00;;;;;21.87;40.77;101534.66;5078310;28;45342;-77
2023/04/02 03:24:04;;;;;;;;;0.00;0.00;;;;;21.88;40.98;101540.81;5078453;28;45375;-76
2023/04/02 03:26:39;;;;;;;;;0.00;0.00;;;;;21.77;41.24;101520.69;5078443;28;45314;-76
2023/04/02 03:29:19;;;;;;;;;0.00;0.00;;;;;21.87;40.80;101537.31;5077778;28;45380;-76
2023/04/02 03:31:55;;;;;;;;;0.00;0.00;;;;;21.87;41.14;101544.41;5078073;28;45332;-75
2023/04/02 03:34:36;;;;;;;;;1.00;0.00;;;;;21.86;40.71;101554.16;5077359;28;45288;-76
2023/04/02 03:37:19;;;;;;;;;1.00;1.00;;;;;21.79;40.62;101538.09;5078100;28;45390;-76
2023/04/02 03:40:06;;;;;;;;;1.00;1.00;;;;;21.86;40.71;101554.16;5077853;28;46397;-76
2023/04/02 03:42:46;;;;;;;;;0.67;0.00;;;;;21.85;41.13;101560.47;5076212;28;45364;-76
2023/04/02 03:45:22;;;;;;;;;0.67;0.67;;;;;21.85;40.63;101565.75;5077983;28;45350;-75
2023/04/02 03:48:03;;;;;;;;;0.00;0.00;;;;;21.85;40.63;101566.59;5077841;27;45359;-76
2023/04/02 03:50:55;;;;;;;;;0.00;0.00;;;;;21.87;41.08;101576.19;5076317;27;46311;-76
2023/04/02 03:53:25;;;;;;;;;1.67;0.67;;;;;21.81;40.64;101577.66;5076480;28;45397;-76
2023/04/02 03:55:52;;;;;;;;;0.33;0.33;;;;;21.88;40.45;101583.19;5077973;27;45341;-75
2023/04/02 03:58:23;;;;;;;;;0.00;0.00;;;;;21.88;40.57;101591.13;5077537;28;45476;-76
2023/04/02 04:00:57;;;;;;;;;0.00;0.00;;;;;21.89;40.54;101595.44;5093215;27;48201;-75
2023/04/02 04:03:35;;;;;;;;;0.00;0.00;;;;;21.88;40.84;101593.78;5077565;28;45398;-75
2023/04/02 04:06:18;;;;;;;;;0.00;0.00;;;;;21.89;40.87;101600.72;5077805;28;45290;-74
2023/04/02 04:08:50;;;;;;;;;0.33;0.33;;;;;21.89;40.78;101608.66;5077638;28;45457;-76
2023/04/02 04:11:21;;;;;;;;;0.00;0.00;;;;;21.88;40.86;101610.50;5077247;27;46307;-76
2023/04/02 04:13:55;;;;;;;;;0.00;0.00;;;;;21.89;40.32;101616.63;5077585;27;45382;-76
2023/04/02 04:16:39;;;;;;;;;0.00;0.00;;;;;21.89;40.28;101617.47;5077155;27;45340;-74
2023/04/02 04:19:16;;;;;;;;;0.00;0.00;;;;;21.89;40.25;101617.47;5077520;27;45463;-76
2023/04/02 04:21:44;;;;;;;;;1.00;1.00;;;;;21.79;40.80;101606.13;5077336;27;46172;-76
2023/04/02 04:24:21;;;;;;;;;0.00;0.00;;;;;21.90;40.69;101618.28;5077321;27;45496;-75
2023/04/02 04:27:08;;;;;;;;;0.00;0.00;;;;;21.89;40.71;101630.69;5077060;27;45229;-76
2023/04/02 04:29:33;;;;;;;;;0.33;0.00;;;;;21.89;40.45;101625.41;5077304;27;45402;-76
2023/04/02 04:32:16;;;;;;;;;1.00;0.00;;;;;21.90;40.71;101634.19;5076857;28;46281;-76
2023/04/02 04:34:50;;;;;;;;;1.33;0.67;;;;;21.83;40.21;101618.09;5077191;28;45299;-75
2023/04/02 04:37:32;;;;;;;;;0.00;0.00;;;;;21.89;40.43;101630.69;5077040;27;45287;-75
2023/04/02 04:40:08;;;;;;;;;0.67;0.00;;;;;21.89;40.53;101633.34;5076937;27;45506;-75
2023/04/02 04:42:37;;;;;;;;;0.00;0.00;;;;;21.87;40.26;101629.16;5076991;28;46024;-75
2023/04/02 04:45:15;;;;;;;;;0.00;0.00;;;;;21.91;40.77;101643.81;5077276;27;45311;-75
2023/04/02 04:48:11;;;;;;;;;0.00;0.00;;;;;21.91;40.32;101647.25;5076987;28;45350;-76
2023/04/02 04:50:47;;;;;;;;;1.00;1.00;;;;;21.91;40.16;101649.09;5054410;28;45297;-75
2023/04/02 04:53:20;;;;;;;;;0.67;0.00;;;;;21.86;40.45;101644.22;5054366;28;45501;-76
2023/04/02 04:55:47;;;;;;;;;0.00;0.00;;;;;21.85;40.27;101643.41;5053393;28;45420;-73
2023/04/02 04:58:24;;;;;;;;;1.00;1.00;;;;;21.90;40.38;101655.38;5054410;28;45459;-73
2023/04/02 05:00:54;;;;;;;;;0.00;0.00;;;;;21.85;40.46;101647.88;5054151;28;45589;-76
2023/04/02 05:03:32;;;;;;;;;0.33;0.33;;;;;21.88;40.38;101666.16;5054196;28;45350;-74
2023/04/02 05:06:07;;;;;;;;;0.00;0.00;;;;;21.87;40.77;101661.81;5053898;28;45470;-77
2023/04/02 05:08:38;;;;;;;;;1.00;1.00;;;;;21.88;40.28;101671.44;5054348;28;45595;-76
2023/04/02 05:11:11;;;;;;;;;1.00;1.00;;;;;21.90;40.74;101681.88;5053816;28;45424;-76
2023/04/02 05:14:02;;;;;;;;;0.00;0.00;;;;;21.90;40.55;101681.88;5053857;28;45749;-75
2023/04/02 05:16:39;;;;;;;;;0.00;0.00;;;;;21.89;40.14;101683.69;5053951;28;45411;-75
2023/04/02 05:19:20;;;;;;;;;0.67;0.67;;;;;21.91;39.90;101688.84;5054183;28;45453;-76
2023/04/02 05:22:08;;;;;;;;;0.00;0.00;;;;;21.89;40.59;101688.16;5054141;28;46590;-75
2023/04/02 05:24:42;;;;;;;;;0.00;0.00;;;;;21.91;40.77;101699.44;5053018;28;46191;-75
2023/04/02 05:27:30;;;;;;;;;0.00;0.00;;;;;21.91;40.28;101704.75;5062268;28;45462;-76
2023/04/02 05:30:22;;;;;;;;;1.00;0.00;;;;;21.88;40.44;101716.47;5076368;28;45343;-75
2023/04/02 05:33:06;;;;;;;;;0.00;0.00;;;;;21.89;40.33;101715.47;5076289;28;45512;-75
2023/04/02 05:35:35;;;;;;;;;0.00;0.00;;;;;21.83;40.57;101697.56;5076049;27;47314;-76
2023/04/02 05:38:01;;;;;;;;;1.00;0.00;;;;;21.88;40.08;101716.47;5075669;28;45314;-77
2023/04/02 05:40:37;;;;;;;;;0.00;0.00;;;;;21.88;40.56;101720.94;5076293;28;45270;-76
2023/04/02 05:43:14;;;;;;;;;0.00;0.00;;;;;21.88;40.25;101723.59;5076354;28;45203;-75
2023/04/02 05:45:43;;;;;;;;;1.00;0.00;;;;;21.81;40.46;101715.41;5075932;28;45307;-75
2023/04/02 05:48:32;;;;;;;;;1.00;0.00;;;;;21.89;39.94;101719.94;5076025;28;45471;-75
2023/04/02 05:50:58;;;;;;;;;0.00;0.00;;;;;21.88;40.36;101728.91;5076156;28;45300;-76
2023/04/02 05:53:40;;;;;;;;;0.00;0.00;;;;;21.83;39.74;101726.69;5075646;28;45346;-75
2023/04/02 05:56:19;;;;;;;;;0.67;0.67;;;;;21.89;40.02;101741.13;5075954;27;47041;-75
2023/04/02 05:59:09;;;;;;;;;0.67;0.67;;;;;21.89;39.91;101739.31;5075291;27;45310;-76
2023/04/02 06:01:46;;;;;;;;;0.00;0.00;;;;;21.90;40.44;101748.09;5076074;28;45417;-75
2023/04/02 06:04:56;;;;;;;;;0.33;0.33;;;;;21.90;40.44;101748.09;5075810;28;45303;-75
2023/04/02 06:07:28;;;;;;;;;1.00;1.00;;;;;21.90;40.35;101740.16;5072939;28;45374;-75
2023/04/02 06:10:00;;;;;;;;;1.00;0.00;;;;;21.89;40.51;101749.91;5073507;28;45495;-75
2023/04/02 06:12:50;;;;;;;;;0.00;0.00;;;;;21.90;40.45;101748.94;5073669;28;45397;-75
2023/04/02 06:15:19;;;;;;;;;0.00;0.00;;;;;21.89;40.52;101757.03;5073502;28;45531;-80
2023/04/02 06:17:50;;;;;;;;;0.00;0.00;;;;;21.89;40.38;101767.63;5073559;28;47095;-77
2023/04/02 06:20:18;;;;;;;;;0.33;0.33;;;;;21.81;40.33;101760.44;5073612;28;45476;-78
2023/04/02 06:22:46;;;;;;;;;0.00;0.00;;;;;21.90;40.56;101767.50;5073431;28;45528;-76
2023/04/02 06:25:25;;;;;;;;;0.00;0.00;;;;;21.85;40.40;101767.09;5072766;28;45518;-77
2023/04/02 06:27:54;;;;;;;;;0.00;0.00;;;;;21.91;40.45;101773.63;5073025;28;46073;-75
2023/04/02 06:30:27;;;;;;;;;0.00;0.00;;;;;21.90;40.55;101779.91;5071823;28;45439;-79
2023/04/02 06:32:52;;;;;;;;;0.00;0.00;;;;;21.92;40.31;101783.22;5072821;28;45389;-77
2023/04/02 06:35:17;;;;;;;;;1.00;0.00;;;;;21.93;40.65;101788.38;5072056;28;45436;-78
2023/04/02 06:37:47;;;;;;;;;0.67;0.67;;;;;21.93;40.83;101792.84;5072136;28;46930;-77
2023/04/02 06:40:39;;;;;;;;;0.00;0.00;;;;;21.94;40.94;101797.97;5071447;28;45538;-74
2023/04/02 06:43:22;;;;;;;;;0.00;0.00;;;;;21.95;40.89;101801.47;5047036;28;45348;-78
2023/04/02 06:45:53;;;;;;;;;0.33;0.33;;;;;21.95;40.94;101802.28;5055319;28;45366;-78
2023/04/02 06:48:20;;;;;;;;;1.00;1.00;;;;;21.95;41.32;101807.59;5056170;27;46397;-79
2023/04/02 06:51:08;;;;;;;;;0.00;0.00;;;;;21.95;41.07;101817.34;5070132;27;45330;-78
2023/04/02 06:53:41;;;;;;;;;0.33;0.00;;;;;21.83;41.14;101793.72;5074639;28;45476;-81
2023/04/02 06:56:21;;;;;;;;;2.00;0.67;;;;;21.95;41.44;101820.00;5074904;27;45394;-80
2023/04/02 06:58:46;;;;;;;;;2.00;1.67;;;;;21.93;40.39;101819.34;5075088;27;47049;-80
2023/04/02 07:01:23;;;;;;;;;2.00;0.00;;;;;21.91;40.99;101816.03;5074098;27;45415;-78
2023/04/02 07:03:49;;;;;;;;;1.33;0.67;;;;;21.92;40.58;101833.56;5074682;27;45394;-79
2023/04/02 07:06:16;;;;;;;;;1.00;1.00;;;;;21.93;40.73;101835.25;5074030;27;45333;-79
2023/04/02 07:08:42;;;;;;;;;0.00;0.00;;;;;21.92;40.74;101841.50;5074879;27;45427;-77
2023/04/02 07:11:13;;;;;;;;;1.00;1.00;;;;;21.88;40.62;101838.34;5078496;27;45828;-79
2023/04/02 07:13:38;;;;;;;;;2.00;1.00;;;;;21.92;40.24;101855.59;5078500;28;45250;-79
2023/04/02 07:16:04;;;;;;;;;0.67;0.67;;;;;21.93;40.75;101856.44;5078510;27;45373;-80
2023/04/02 07:18:32;;;;;;;;;0.67;0.00;;;;;21.94;40.72;101852.78;5078417;27;46918;-79
2023/04/02 07:20:58;;;;;;;;;0.00;0.00;;;;;21.94;40.59;101858.06;5078113;27;45276;-80
2023/04/02 07:23:24;;;;;;;;;1.33;0.00;;;;;21.94;40.27;101864.22;5078468;27;45397;-78
2023/04/02 07:25:52;;;;;;;;;1.00;1.00;;;;;21.83;40.34;101848.56;5078413;27;45449;-79
2023/04/02 07:28:18;;;;;;;;;1.00;1.00;;;;;21.94;39.99;101879.28;5078205;27;46062;-79
2023/04/02 07:30:44;;;;;;;;;2.00;1.00;;;;;21.94;40.60;101873.97;5078087;27;45367;-79
2023/04/02 07:33:18;;;;;;;;;2.00;1.00;;;;;21.94;40.60;101876.63;5057939;28;45320;-78
2023/04/02 07:35:45;;;;;;;;;1.00;1.00;;;;;21.94;40.13;101880.13;5057635;28;45269;-79
2023/04/02 07:38:10;;;;;;;;;1.00;1.00;;;;;21.84;40.40;101882.81;5057518;28;46355;-80
2023/04/02 07:40:36;;;;;;;;;0.33;0.00;;;;;21.94;40.57;101889.88;5057838;28;45515;-80
2023/04/02 07:43:01;;;;;;;;;1.00;1.00;;;;;21.82;40.20;101871.56;5058061;28;45348;-79
2023/04/02 07:45:27;;;;;;;;;2.00;1.00;;;;;21.92;40.01;101890.03;5057648;28;45311;-79
2023/04/02 07:47:52;;;;;;;;;3.33;2.00;;;;;21.91;40.04;101896.31;5057594;28;46144;-79
2023/04/02 07:50:18;;;;;;;;;0.67;0.67;;;;;21.91;40.49;101904.25;5075205;27;45413;-79
2023/04/02 07:52:44;;;;;;;;;1.00;1.00;;;;;21.91;40.01;101906.91;5077906;28;45408;-80
2023/04/02 07:55:11;;;;;;;;;0.67;0.67;;;;;21.92;39.99;101902.44;5076659;28;45577;-79
2023/04/02 07:57:47;;;;;;;;;1.00;1.00;;;;;21.92;40.44;101913.06;5077787;27;46534;-79
2023/04/02 08:00:13;;;;;;;;;1.00;1.00;;;;;21.86;39.87;101911.81;5077686;28;45308;-79
2023/04/02 08:02:39;;;;;;;;;0.33;0.33;;;;;21.89;40.76;101921.28;5077807;28;45375;-79
2023/04/02 08:05:05;;;;;;;;;1.33;1.33;;;;;21.90;39.98;101931.75;5077385;27;45362;-80
2023/04/02 08:07:30;;;;;;;;;1.00;1.00;;;;;21.90;40.04;101937.06;5077585;27;46182;-80
2023/04/02 08:09:56;;;;;;;;;0.00;0.00;;;;;21.90;40.07;101947.66;5077544;27;45408;-79
2023/04/02 08:12:21;;;;;;;;;0.67;0.67;;;;;21.83;40.48;101935.97;5077869;27;45401;-80
2023/04/02 08:14:46;;;;;;;;;0.00;0.00;;;;;21.90;40.06;101944.16;5077708;28;45442;-80
2023/04/02 08:17:12;;;;;;;;;1.67;1.67;;;;;21.90;40.18;101930.91;5077419;27;46313;-79
2023/04/02 08:19:37;;;;;;;;;2.00;1.00;;;;;21.86;39.80;101940.94;5077089;28;45412;-80
2023/04/02 08:22:02;;;;;;;;;0.67;0.67;;;;;21.84;40.12;101940.28;5077385;27;45684;-80
2023/04/02 08:24:28;;;;;;;;;1.33;0.33;;;;;21.84;39.85;101948.22;5077709;27;45287;-80
2023/04/02 08:26:53;;;;;;;;;2.00;2.00;;;;;21.90;40.15;101960.91;5077279;28;45424;-79
2023/04/02 08:29:20;;;;;;;;;1.00;1.00;;;;;21.91;39.63;101969.69;5077219;27;45382;-79
2023/04/02 08:31:45;;;;;;;;;1.67;1.67;;;;;21.88;39.60;101962.88;5077168;27;45320;-79
2023/04/02 08:34:11;;;;;;;;;1.00;1.00;;;;;21.91;39.49;101973.16;5076806;28;45502;-79
2023/04/02 08:36:40;;;;;;;;;1.00;1.00;;;;;21.82;40.04;101963.44;5077035;28;46124;-79
2023/04/02 08:39:15;;;;;;;;;1.00;1.00;;;;;21.85;39.64;101963.16;5077291;28;45367;-79
2023/04/02 08:41:48;;;;;;;;;0.67;0.67;;;;;21.92;39.91;101974.00;5077035;27;45366;-79
2023/04/02 08:44:28;;;;;;;;;1.67;1.67;;;;;21.94;40.00;101979.97;5076376;28;45275;-79
2023/04/02 08:47:04;;;;;;;;;2.00;2.00;;;;;21.93;39.91;101970.38;5076531;27;45417;-78
2023/04/02 08:49:58;;;;;;;;;2.33;1.00;;;;;21.93;39.73;101983.63;5076693;27;45473;-80
2023/04/02 08:52:34;;;;;;;;;0.67;0.67;;;;;21.93;39.45;101989.75;5077047;27;45394;-79
2023/04/02 08:55:01;;;;;;;;;1.00;1.00;;;;;21.81;39.45;101986.44;5076877;27;45433;-79
2023/04/02 08:57:53;;;;;;;;;1.00;1.00;;;;;21.91;39.96;102002.28;5076598;28;46077;-80
2023/04/02 09:00:39;;;;;;;;;0.00;0.00;;;;;21.91;39.60;102004.94;5076689;27;45335;-79
2023/04/02 09:03:16;;;;;;;;;2.00;1.00;;;;;21.84;39.47;102001.22;5076535;28;45473;-79
2023/04/02 09:05:44;;;;;;;;;1.00;1.00;;;;;21.91;39.47;102012.91;5076726;27;45750;-79
2023/04/02 09:08:21;;;;;;;;;1.33;1.33;;;;;21.92;39.55;102016.38;5076191;28;46105;-79
2023/04/02 09:10:57;;;;;;;;;1.67;1.00;;;;;21.92;39.55;102025.16;5076485;28;45372;-80
2023/04/02 09:13:26;;;;;;;;;2.33;1.00;;;;;21.92;39.47;102024.34;5076729;28;45417;-80
2023/04/02 09:16:21;;;;;;;;;1.33;0.00;;;;;21.92;39.55;102030.47;5076316;28;45309;-79
2023/04/02 09:18:50;;;;;;;;;3.00;1.00;;;;;21.92;39.38;102040.22;5076244;27;47181;-79
2023/04/02 09:21:33;;;;;;;;;0.67;0.67;;;;;21.92;39.52;102033.13;5076189;28;45487;-79
2023/04/02 09:23:59;;;;;;;;;0.67;0.67;;;;;21.92;39.39;102040.22;5076512;28;45429;-79
2023/04/02 09:26:30;;;;;;;;;1.33;0.33;;;;;21.92;39.89;102037.59;5076507;27;45373;-79
2023/04/02 09:29:34;;;;;;;;;2.00;0.00;;;;;21.92;39.90;102048.19;5076272;27;47043;-78
2023/04/02 09:32:05;;;;;;;;;1.00;1.00;;;;;21.91;39.35;102057.94;5073658;28;45312;-79
2023/04/02 09:34:33;;;;;;;;;1.00;1.00;;;;;21.91;39.24;102054.47;5076228;28;45350;-79
2023/04/02 09:37:28;;;;;;;;;1.00;1.00;;;;;21.92;39.79;102056.13;5075974;28;45520;-81
2023/04/02 09:40:28;;;;;;;;;0.33;0.33;;;;;21.92;39.79;102062.25;5075369;28;46244;-78
2023/04/02 09:43:12;;;;;;;;;1.00;1.00;;;;;21.89;39.06;102069.66;5050495;27;45657;-80
2023/04/02 09:45:39;;;;;;;;;0.67;0.67;;;;;21.85;39.08;102059.38;5066357;28;45370;-79
2023/04/02 09:48:21;;;;;;;;;3.00;1.00;;;;;21.87;38.80;102076.91;5070803;28;45414;-79
2023/04/02 09:50:47;;;;;;;;;3.00;2.00;;;;;21.88;38.84;102081.28;5069323;28;47243;-79
2023/04/02 09:53:27;;;;;;;;;1.33;1.00;;;;;21.88;39.26;102079.47;5070590;28;45516;-79
2023/04/02 09:56:17;;;;;;;;;2.00;1.00;;;;;21.89;39.37;102067.84;5069965;27;45462;-78
2023/04/02 09:58:44;;;;;;;;;2.00;1.00;;;;;21.92;39.34;102087.91;5075581;28;45373;-79
2023/04/02 10:01:28;;;;;;;;;1.00;1.00;;;;;21.93;38.75;102079.84;5070857;28;46025;-78
2023/04/02 10:03:54;;;;;;;;;0.33;0.33;;;;;21.94;39.04;102078.84;5066399;28;45640;-78
2023/04/02 10:06:19;;;;;;;;;1.33;0.67;;;;;21.95;39.17;102092.94;5073697;28;45379;-78
2023/04/02 10:08:45;;;;;;;;;1.00;1.00;;;;;21.95;38.71;102101.72;5073670;27;45411;-79
2023/04/02 10:11:21;;;;;;;;;2.33;1.00;;;;;21.96;39.13;102098.06;5073944;28;47302;-78
2023/04/02 10:14:00;;;;;;;;;2.00;0.67;;;;;21.94;39.40;102102.69;5072749;28;45461;-79
2023/04/02 10:17:14;;;;;;;;;2.00;2.00;;;;;21.95;39.19;102114.97;5073929;28;45410;-78
2023/04/02 10:19:45;;;;;;;;;0.67;0.67;;;;;21.94;38.84;102115.94;5073780;28;45701;-78
2023/04/02 10:22:17;;;;;;;;;0.00;0.00;;;;;21.94;39.29;102118.59;5073691;28;45465;-79
2023/04/02 10:24:43;;;;;;;;;3.00;1.00;;;;;21.93;38.80;102124.88;5073890;27;45410;-79
2023/04/02 10:27:36;;;;;;;;;1.00;1.00;;;;;21.91;38.92;102128.66;5073620;27;45874;-79
2023/04/02 10:30:17;;;;;;;;;1.00;0.00;;;;;21.94;39.08;102138.94;5073598;27;45536;-79
2023/04/02 10:33:04;;;;;;;;;1.00;1.00;;;;;21.94;39.13;102131.84;5072629;27;46179;-79
2023/04/02 10:36:04;;;;;;;;;1.00;1.00;;;;;21.95;38.73;102137.97;5073444;28;45517;-78
2023/04/02 10:38:37;;;;;;;;;1.33;1.33;;;;;21.87;38.99;102127.25;5073594;27;45419;-79
2023/04/02 10:41:18;;;;;;;;;4.00;2.00;;;;;21.95;38.72;102148.59;5072815;27;45442;-78
2023/04/02 10:43:58;;;;;;;;;0.00;0.00;;;;;21.93;38.56;102151.38;5074350;27;45465;-79
2023/04/02 10:46:50;;;;;;;;;1.00;1.00;;;;;21.94;38.66;102153.03;5076906;27;45422;-79
2023/04/02 10:50:00;;;;;;;;;2.67;2.00;;;;;21.95;38.60;102148.59;5068854;28;45416;-79
2023/04/02 10:52:48;;;;;;;;;1.00;1.00;;;;;21.93;39.17;102148.75;5054036;28;45434;-79
2023/04/02 10:55:19;;;;;;;;;3.33;2.00;;;;;21.96;39.00;102153.72;5054190;28;45461;-78
2023/04/02 10:57:45;;;;;;;;;1.00;1.00;;;;;21.96;38.51;102152.91;5045954;28;45505;-78
2023/04/02 11:00:11;;;;;;;;;0.33;0.33;;;;;21.96;38.26;102150.25;5033712;28;45513;-79
2023/04/02 11:02:49;;;;;;;;;2.33;2.00;;;;;21.96;38.47;102158.22;5033994;28;45423;-77
2023/04/02 11:05:35;;;;;;;;;3.67;1.00;;;;;21.96;38.52;102164.31;5033870;28;45471;-77
2023/04/02 11:08:08;;;;;;;;;0.67;0.67;;;;;21.97;38.92;102149.25;5033849;28;45406;-84
2023/04/02 11:10:39;;;;;;;;;3.67;0.67;;;;;21.97;38.98;102165.16;5035025;28;45510;-85
2023/04/02 11:13:21;;;;;;;;;1.67;1.67;;;;;21.66;38.66;102115.91;5046334;28;45452;-84
2023/04/02 11:15:47;;;;;;;;;1.67;1.67;;;;;21.98;38.72;102163.34;5025378;28;46280;-83
2023/04/02 11:18:43;;;;;;;;;1.00;1.00;;;;;22.00;38.41;102164.03;5022035;28;45601;-85
2023/04/02 11:21:40;;;;;;;;;2.67;1.00;;;;;22.00;38.33;102186.06;5017352;28;45562;-89
2023/04/02 11:24:28;;;;;;;;;3.00;1.33;;;;;21.98;38.65;102164.19;4954547;28;45586;-84
2023/04/02 11:27:15;;;;;;;;;1.00;1.00;;;;;21.98;38.96;102171.31;4957947;28;46371;-89
2023/04/02 11:30:04;;;;;;;;;1.00;1.00;;;;;22.00;38.78;102183.41;4994596;28;45839;-88
2023/04/02 11:32:36;;;;;;;;;3.00;2.00;;;;;22.01;39.01;102192.22;5005279;28;45407;-84
2023/04/02 11:35:19;;;;;;;;;4.00;2.00;;;;;22.02;38.90;102188.56;4993676;28;45513;-82
2023/04/02 11:37:45;;;;;;;;;4.33;3.33;;;;;22.02;38.86;102191.22;4993906;28;47258;-80
2023/04/02 11:40:10;;;;;;;;;3.00;3.00;;;;;21.99;38.69;102192.34;4992326;28;46760;-81
2023/04/02 11:42:39;;;;;;;;;3.67;3.67;;;;;21.95;38.56;102186.53;4993466;28;45775;-81
2023/04/02 11:45:19;;;;;;;;;8.67;4.33;;;;;21.92;37.78;102184.16;4993497;28;45917;-88
2023/04/02 11:48:06;;;;;;;;;3.50;3.50;;;;;21.91;38.61;102189.63;4992772;28;46905;-81
2023/04/02 11:50:36;;;;;;;;;4.00;3.00;;;;;21.85;38.73;102183.88;4993353;28;45350;-82
2023/04/02 11:53:11;;;;;;;;;5.00;3.67;;;;;21.93;39.20;102192.94;4993127;28;45566;-84
2023/04/02 11:55:39;;;;;;;;;2.00;2.00;;;;;21.94;39.02;102186.66;5009349;28;45442;-87
2023/04/02 11:58:50;;;;;;;;;2.67;2.67;;;;;21.96;39.36;102190.81;4997738;28;46244;-87
2023/04/02 12:01:28;;;;;;;;;6.33;2.67;;;;;21.94;39.08;102189.28;5018647;28;45411;-84
2023/04/02 12:04:15;;;;;;;;;5.00;4.50;;;;;21.99;39.54;102197.63;5033103;28;45654;-80